Salto Veloso, Brazil
Current Conditions -  °F | °C
As of 6:20 AM on Saturday 22 Nov 2014 (Local Time) from SBCH Reporting Station
Scattered Clouds Scattered Clouds  
Wind Chill: 64°   Ceiling: Unl
Heat Index: 64°   Visibility: 4mi
Dew Point: 64°   Wind: 5mph
Humidity: 100%   Direction: 320°NW
Pressure: 29.88"   Gusts: NA
Location:  26.91°S, 51.41°W
Report Text: SBCH 220820Z 32004KT 7000 FEW003 SCT005 18/18 Q1012
Loading
Personal Weather Stations






























Interactive Weather Map New forecast layout! Learn more

10-Day Weather Forecast

Advertisements
Track Severe Weather on mobile